TimeCDT,TemperatureF,Dew PointF,Humidity,Sea Level PressureIn,VisibilityMPH,Wind Direction,Wind SpeedMPH,Gust SpeedMPH,PrecipitationIn,Events,Conditions,WindDirDegrees,DateUTC
12:53 AM,75.9,73.9,94,30.09,10.0,Calm,Calm,-,N/A,,Clear,0,2013-08-12 05:53:00
1:53 AM,75.9,73.9,94,30.08,10.0,Calm,Calm,-,N/A,,Clear,0,2013-08-12 06:53:00
2:53 AM,73.9,72.0,93,30.08,8.0,Calm,Calm,-,N/A,,Clear,0,2013-08-12 07:53:00
3:53 AM,73.9,73.0,97,30.07,10.0,Calm,Calm,-,N/A,,Clear,0,2013-08-12 08:53:00
4:53 AM,73.9,73.0,97,30.08,10.0,Calm,Calm,-,N/A,,Clear,0,2013-08-12 09:53:00
5:53 AM,73.9,72.0,93,30.09,10.0,Calm,Calm,-,N/A,,Clear,0,2013-08-12 10:53:00
6:53 AM,73.0,72.0,96,30.09,7.0,Calm,Calm,-,N/A,,Partly Cloudy,0,2013-08-12 11:53:00
7:53 AM,75.9,73.9,94,30.10,10.0,Calm,Calm,-,N/A,,Clear,0,2013-08-12 12:53:00
8:53 AM,81.0,75.9,85,30.11,10.0,South,3.5,-,N/A,,Clear,190,2013-08-12 13:53:00
9:53 AM,84.0,75.0,74,30.11,10.0,South,6.9,-,N/A,,Partly Cloudy,180,2013-08-12 14:53:00
10:53 AM,87.1,73.0,63,30.11,10.0,South,6.9,-,N/A,,Scattered Clouds,180,2013-08-12 15:53:00
11:53 AM,89.1,72.0,57,30.09,10.0,West,5.8,-,N/A,,Scattered Clouds,280,2013-08-12 16:53:00
12:53 PM,90.0,71.1,54,30.07,10.0,SSW,6.9,-,N/A,,Partly Cloudy,200,2013-08-12 17:53:00
1:53 PM,91.9,72.0,52,30.04,10.0,Variable,3.5,-,N/A,,Partly Cloudy,0,2013-08-12 18:53:00
2:53 PM,91.9,69.1,47,30.03,10.0,Variable,5.8,-,N/A,,Partly Cloudy,0,2013-08-12 19:53:00
3:53 PM,93.0,71.1,49,30.01,10.0,SW,9.2,-,N/A,Thunderstorm,Partly Cloudy,220,2013-08-12 20:53:00
4:53 PM,75.9,73.0,91,30.06,10.0,SSE,10.4,-,0.01,Thunderstorm,Scattered Clouds,160,2013-08-12 21:53:00
5:11 PM,75.2,71.6,89,30.06,10.0,Calm,Calm,-,N/A,,Partly Cloudy,0,2013-08-12 22:11:00
5:53 PM,75.0,71.1,87,30.04,10.0,South,4.6,-,N/A,,Clear,170,2013-08-12 22:53:00
6:53 PM,75.0,72.0,90,30.04,10.0,South,3.5,-,N/A,,Clear,180,2013-08-12 23:53:00
7:53 PM,75.0,72.0,90,30.04,10.0,SSE,5.8,-,N/A,,Partly Cloudy,160,2013-08-13 00:53:00
8:53 PM,73.9,72.0,93,30.04,10.0,South,4.6,-,N/A,,Clear,170,2013-08-13 01:53:00
9:53 PM,73.9,71.1,91,30.04,10.0,SSE,3.5,-,N/A,,Clear,150,2013-08-13 02:53:00
10:53 PM,73.9,71.1,91,30.04,10.0,South,3.5,-,N/A,,Clear,190,2013-08-13 03:53:00
11:53 PM,75.0,71.1,87,30.05,10.0,Calm,Calm,-,N/A,,Clear,0,2013-08-13 04:53:00